Terminal Aerodrome Forecast
Issued by NWS Houston/Galveston, TX

Home | Current Version | Previous Version | Text Only | Print | Product List | Glossary On
Versions: 1 2 3 4 5 6 7 8 9 10 11 12 13 14 15 16 17 18 19 20 21 22 23 24 25 26 27 28 29 30 31 32 33 34 35 36 37
000
FTUS44 KHGX 030811 AAA
TAFCLL
TAF AMD
KCLL 030811Z 0308/0406 00000KT P6SM OVC250
     FM031000 16003KT P6SM SCT020 OVC250
      TEMPO 0310/0313 BKN018
     FM031500 18011G17KT P6SM SCT035 SCT250
     FM040000 18007KT P6SM SCT250=

USA.gov is the U.S. government's official web portal to all federal, state and local government web resources and services.